sensor_id;sensor_type;location;lat;lon;timestamp;temperature;humidity
4453;DHT22;2239;48.152;11.584;2023-08-31T00:00:01;14.90;99.90
4453;DHT22;2239;48.152;11.584;2023-08-31T00:02:29;14.80;99.90
4453;DHT22;2239;48.152;11.584;2023-08-31T00:04:55;14.80;99.90
4453;DHT22;2239;48.152;11.584;2023-08-31T00:07:21;14.80;99.90
4453;DHT22;2239;48.152;11.584;2023-08-31T00:09:47;14.80;99.90
4453;DHT22;2239;48.152;11.584;2023-08-31T00:12:13;14.70;99.90
4453;DHT22;2239;48.152;11.584;2023-08-31T00:14:38;14.70;99.90
4453;DHT22;2239;48.152;11.584;2023-08-31T00:17:04;14.60;99.90
4453;DHT22;2239;48.152;11.584;2023-08-31T00:19:30;14.60;99.90
4453;DHT22;2239;48.152;11.584;2023-08-31T00:21:56;14.60;99.90
4453;DHT22;2239;48.152;11.584;2023-08-31T00:24:21;14.60;99.90
4453;DHT22;2239;48.152;11.584;2023-08-31T00:26:53;14.60;99.90
4453;DHT22;2239;48.152;11.584;2023-08-31T00:29:19;14.60;99.90
4453;DHT22;2239;48.152;11.584;2023-08-31T00:31:45;14.50;99.90
4453;DHT22;2239;48.152;11.584;2023-08-31T00:34:13;14.50;99.90
4453;DHT22;2239;48.152;11.584;2023-08-31T00:36:40;14.50;99.90
4453;DHT22;2239;48.152;11.584;2023-08-31T00:39:05;14.40;99.90
4453;DHT22;2239;48.152;11.584;2023-08-31T00:41:32;14.40;99.90
4453;DHT22;2239;48.152;11.584;2023-08-31T00:43:58;14.50;99.90
4453;DHT22;2239;48.152;11.584;2023-08-31T00:46:24;14.40;99.90
4453;DHT22;2239;48.152;11.584;2023-08-31T00:48:53;14.40;99.90
4453;DHT22;2239;48.152;11.584;2023-08-31T00:51:19;14.40;99.90
4453;DHT22;2239;48.152;11.584;2023-08-31T00:53:45;14.30;99.90
4453;DHT22;2239;48.152;11.584;2023-08-31T00:56:10;14.30;99.90
4453;DHT22;2239;48.152;11.584;2023-08-31T00:58:36;14.30;99.90
4453;DHT22;2239;48.152;11.584;2023-08-31T01:03:58;14.30;99.90
4453;DHT22;2239;48.152;11.584;2023-08-31T01:06:32;14.30;99.90
4453;DHT22;2239;48.152;11.584;2023-08-31T01:09:07;14.30;99.90
4453;DHT22;2239;48.152;11.584;2023-08-31T01:14:23;14.30;99.90
4453;DHT22;2239;48.152;11.584;2023-08-31T01:16:50;14.30;99.90
4453;DHT22;2239;48.152;11.584;2023-08-31T01:19:43;14.30;99.90
4453;DHT22;2239;48.152;11.584;2023-08-31T01:22:14;14.30;99.90
4453;DHT22;2239;48.152;11.584;2023-08-31T01:24:42;14.20;99.90
4453;DHT22;2239;48.152;11.584;2023-08-31T01:27:09;14.20;99.90
4453;DHT22;2239;48.152;11.584;2023-08-31T01:29:35;14.20;99.90
4453;DHT22;2239;48.152;11.584;2023-08-31T01:32:04;14.20;99.90
4453;DHT22;2239;48.152;11.584;2023-08-31T01:34:30;14.20;99.90
4453;DHT22;2239;48.152;11.584;2023-08-31T01:36:58;14.20;99.90
4453;DHT22;2239;48.152;11.584;2023-08-31T01:39:45;14.20;99.90
4453;DHT22;2239;48.152;11.584;2023-08-31T01:42:13;14.20;99.90
4453;DHT22;2239;48.152;11.584;2023-08-31T01:44:41;14.20;99.90
4453;DHT22;2239;48.152;11.584;2023-08-31T01:47:08;14.30;99.90
4453;DHT22;2239;48.152;11.584;2023-08-31T01:49:41;14.30;99.90
4453;DHT22;2239;48.152;11.584;2023-08-31T01:52:07;14.30;99.90
4453;DHT22;2239;48.152;11.584;2023-08-31T01:54:33;14.30;99.90
4453;DHT22;2239;48.152;11.584;2023-08-31T01:56:59;14.30;99.90
4453;DHT22;2239;48.152;11.584;2023-08-31T01:59:24;14.30;99.90
4453;DHT22;2239;48.152;11.584;2023-08-31T02:01:50;14.30;99.90
4453;DHT22;2239;48.152;11.584;2023-08-31T02:04:16;14.20;99.90
4453;DHT22;2239;48.152;11.584;2023-08-31T02:06:42;14.30;99.90
4453;DHT22;2239;48.152;11.584;2023-08-31T02:09:08;14.30;99.90
4453;DHT22;2239;48.152;11.584;2023-08-31T02:11:33;14.30;99.90
4453;DHT22;2239;48.152;11.584;2023-08-31T02:14:03;14.30;99.90
4453;DHT22;2239;48.152;11.584;2023-08-31T02:16:30;14.40;99.90
4453;DHT22;2239;48.152;11.584;2023-08-31T02:18:55;14.40;99.90
4453;DHT22;2239;48.152;11.584;2023-08-31T02:21:21;14.40;99.90
4453;DHT22;2239;48.152;11.584;2023-08-31T02:23:47;14.40;99.90
4453;DHT22;2239;48.152;11.584;2023-08-31T02:26:12;14.40;99.90
4453;DHT22;2239;48.152;11.584;2023-08-31T02:28:38;14.40;99.90
4453;DHT22;2239;48.152;11.584;2023-08-31T02:31:03;14.40;99.90
4453;DHT22;2239;48.152;11.584;2023-08-31T02:33:29;14.40;99.90
4453;DHT22;2239;48.152;11.584;2023-08-31T02:35:55;14.50;99.90
4453;DHT22;2239;48.152;11.584;2023-08-31T02:38:22;14.50;99.90
4453;DHT22;2239;48.152;11.584;2023-08-31T02:40:48;14.50;99.90
4453;DHT22;2239;48.152;11.584;2023-08-31T02:43:14;14.40;99.90
4453;DHT22;2239;48.152;11.584;2023-08-31T02:45:40;14.40;99.90
4453;DHT22;2239;48.152;11.584;2023-08-31T02:48:08;14.30;99.90
4453;DHT22;2239;48.152;11.584;2023-08-31T02:50:34;14.20;99.90
4453;DHT22;2239;48.152;11.584;2023-08-31T02:53:00;14.10;99.90
4453;DHT22;2239;48.152;11.584;2023-08-31T02:55:25;14.10;99.90
4453;DHT22;2239;48.152;11.584;2023-08-31T02:57:51;14.00;99.90
4453;DHT22;2239;48.152;11.584;2023-08-31T03:00:17;13.90;99.90
4453;DHT22;2239;48.152;11.584;2023-08-31T03:02:49;13.90;99.90
4453;DHT22;2239;48.152;11.584;2023-08-31T03:05:18;13.90;99.90
4453;DHT22;2239;48.152;11.584;2023-08-31T03:07:44;13.90;99.90
4453;DHT22;2239;48.152;11.584;2023-08-31T03:10:11;14.00;99.90
4453;DHT22;2239;48.152;11.584;2023-08-31T03:12:37;14.00;99.90
4453;DHT22;2239;48.152;11.584;2023-08-31T03:15:04;14.00;99.90
4453;DHT22;2239;48.152;11.584;2023-08-31T03:17:29;14.00;99.90
4453;DHT22;2239;48.152;11.584;2023-08-31T03:19:55;14.00;99.90
4453;DHT22;2239;48.152;11.584;2023-08-31T03:22:20;14.00;99.90
4453;DHT22;2239;48.152;11.584;2023-08-31T03:24:46;14.00;99.90
4453;DHT22;2239;48.152;11.584;2023-08-31T03:27:11;14.00;99.90
4453;DHT22;2239;48.152;11.584;2023-08-31T03:29:37;13.90;99.90
4453;DHT22;2239;48.152;11.584;2023-08-31T03:32:03;13.90;99.90
4453;DHT22;2239;48.152;11.584;2023-08-31T03:34:29;13.90;99.90
4453;DHT22;2239;48.152;11.584;2023-08-31T03:36:56;13.80;99.90
4453;DHT22;2239;48.152;11.584;2023-08-31T03:39:21;13.80;99.90
4453;DHT22;2239;48.152;11.584;2023-08-31T03:41:47;13.80;99.90
4453;DHT22;2239;48.152;11.584;2023-08-31T03:44:12;13.80;99.90
4453;DHT22;2239;48.152;11.584;2023-08-31T03:46:38;13.80;99.90
4453;DHT22;2239;48.152;11.584;2023-08-31T03:49:04;13.80;99.90
4453;DHT22;2239;48.152;11.584;2023-08-31T03:51:29;13.80;99.90
4453;DHT22;2239;48.152;11.584;2023-08-31T03:53:55;13.80;99.90
4453;DHT22;2239;48.152;11.584;2023-08-31T03:56:22;13.80;99.90
4453;DHT22;2239;48.152;11.584;2023-08-31T03:58:48;13.80;99.90
4453;DHT22;2239;48.152;11.584;2023-08-31T04:01:13;13.80;99.90
4453;DHT22;2239;48.152;11.584;2023-08-31T04:03:41;13.80;99.90
4453;DHT22;2239;48.152;11.584;2023-08-31T04:06:07;13.80;99.90
4453;DHT22;2239;48.152;11.584;2023-08-31T04:08:33;13.70;99.90
4453;DHT22;2239;48.152;11.584;2023-08-31T04:10:58;13.70;99.90
4453;DHT22;2239;48.152;11.584;2023-08-31T04:13:24;13.70;99.90
4453;DHT22;2239;48.152;11.584;2023-08-31T04:15:49;13.70;99.90
4453;DHT22;2239;48.152;11.584;2023-08-31T04:18:15;13.80;99.90
4453;DHT22;2239;48.152;11.584;2023-08-31T04:20:48;13.70;99.90
4453;DHT22;2239;48.152;11.584;2023-08-31T04:23:15;13.70;99.90
4453;DHT22;2239;48.152;11.584;2023-08-31T04:25:40;13.70;99.90
4453;DHT22;2239;48.152;11.584;2023-08-31T04:28:07;13.70;99.90
4453;DHT22;2239;48.152;11.584;2023-08-31T04:30:33;13.70;99.90
4453;DHT22;2239;48.152;11.584;2023-08-31T04:32:58;13.70;99.90
4453;DHT22;2239;48.152;11.584;2023-08-31T04:35:24;13.70;99.90
4453;DHT22;2239;48.152;11.584;2023-08-31T04:37:50;13.70;99.90
4453;DHT22;2239;48.152;11.584;2023-08-31T04:40:25;13.70;99.90
4453;DHT22;2239;48.152;11.584;2023-08-31T04:42:51;13.70;99.90
4453;DHT22;2239;48.152;11.584;2023-08-31T04:45:16;13.70;99.90
4453;DHT22;2239;48.152;11.584;2023-08-31T04:47:42;13.70;99.90
4453;DHT22;2239;48.152;11.584;2023-08-31T04:50:08;13.70;99.90
4453;DHT22;2239;48.152;11.584;2023-08-31T04:52:34;13.70;99.90
4453;DHT22;2239;48.152;11.584;2023-08-31T04:55:01;13.70;99.90
4453;DHT22;2239;48.152;11.584;2023-08-31T04:57:26;13.70;99.90
4453;DHT22;2239;48.152;11.584;2023-08-31T04:59:52;13.70;99.90
4453;DHT22;2239;48.152;11.584;2023-08-31T05:02:18;13.70;99.90
4453;DHT22;2239;48.152;11.584;2023-08-31T05:04:44;13.60;99.90
4453;DHT22;2239;48.152;11.584;2023-08-31T05:07:09;13.70;99.90
4453;DHT22;2239;48.152;11.584;2023-08-31T05:09:35;13.70;99.90
4453;DHT22;2239;48.152;11.584;2023-08-31T05:12:01;13.70;99.90
4453;DHT22;2239;48.152;11.584;2023-08-31T05:14:28;13.70;99.90
4453;DHT22;2239;48.152;11.584;2023-08-31T05:16:54;13.70;99.90
4453;DHT22;2239;48.152;11.584;2023-08-31T05:19:19;13.80;99.90
4453;DHT22;2239;48.152;11.584;2023-08-31T05:21:45;13.80;99.90
4453;DHT22;2239;48.152;11.584;2023-08-31T05:24:11;13.80;99.90
4453;DHT22;2239;48.152;11.584;2023-08-31T05:26:36;13.80;99.90
4453;DHT22;2239;48.152;11.584;2023-08-31T05:29:02;13.80;99.90
4453;DHT22;2239;48.152;11.584;2023-08-31T05:31:29;13.90;99.90
4453;DHT22;2239;48.152;11.584;2023-08-31T05:33:55;13.90;99.90
4453;DHT22;2239;48.152;11.584;2023-08-31T05:36:20;13.90;99.90
4453;DHT22;2239;48.152;11.584;2023-08-31T05:38:46;13.90;99.90
4453;DHT22;2239;48.152;11.584;2023-08-31T05:41:11;14.00;99.90
4453;DHT22;2239;48.152;11.584;2023-08-31T05:43:37;13.90;99.90
4453;DHT22;2239;48.152;11.584;2023-08-31T05:46:06;14.00;99.90
4453;DHT22;2239;48.152;11.584;2023-08-31T05:48:32;14.10;99.90
4453;DHT22;2239;48.152;11.584;2023-08-31T05:50:58;14.20;99.90
4453;DHT22;2239;48.152;11.584;2023-08-31T05:53:24;14.20;99.90
4453;DHT22;2239;48.152;11.584;2023-08-31T05:55:49;14.30;99.90
4453;DHT22;2239;48.152;11.584;2023-08-31T05:58:15;14.30;99.90
4453;DHT22;2239;48.152;11.584;2023-08-31T06:00:40;14.30;99.90
4453;DHT22;2239;48.152;11.584;2023-08-31T06:03:06;14.30;99.90
4453;DHT22;2239;48.152;11.584;2023-08-31T06:05:32;14.30;99.90
4453;DHT22;2239;48.152;11.584;2023-08-31T06:07:58;14.20;99.90
4453;DHT22;2239;48.152;11.584;2023-08-31T06:10:24;14.30;99.90
4453;DHT22;2239;48.152;11.584;2023-08-31T06:12:50;14.30;99.90
4453;DHT22;2239;48.152;11.584;2023-08-31T06:15:16;14.30;99.90
4453;DHT22;2239;48.152;11.584;2023-08-31T06:17:43;14.40;99.90
4453;DHT22;2239;48.152;11.584;2023-08-31T06:20:09;14.30;99.90
4453;DHT22;2239;48.152;11.584;2023-08-31T06:22:35;14.40;99.90
4453;DHT22;2239;48.152;11.584;2023-08-31T06:25:01;14.40;99.90
4453;DHT22;2239;48.152;11.584;2023-08-31T06:27:28;14.50;99.90
4453;DHT22;2239;48.152;11.584;2023-08-31T06:29:53;14.50;99.90
4453;DHT22;2239;48.152;11.584;2023-08-31T06:32:19;14.50;99.90
4453;DHT22;2239;48.152;11.584;2023-08-31T06:34:45;14.50;99.90
4453;DHT22;2239;48.152;11.584;2023-08-31T06:37:11;14.60;99.90
4453;DHT22;2239;48.152;11.584;2023-08-31T06:39:36;14.70;99.90
4453;DHT22;2239;48.152;11.584;2023-08-31T06:42:02;14.70;99.90
4453;DHT22;2239;48.152;11.584;2023-08-31T06:44:29;14.70;99.90
4453;DHT22;2239;48.152;11.584;2023-08-31T06:46:55;14.80;99.90
4453;DHT22;2239;48.152;11.584;2023-08-31T06:49:22;14.80;99.90
4453;DHT22;2239;48.152;11.584;2023-08-31T06:51:47;14.80;99.90
4453;DHT22;2239;48.152;11.584;2023-08-31T06:54:13;14.80;99.90
4453;DHT22;2239;48.152;11.584;2023-08-31T06:56:38;14.80;99.90
4453;DHT22;2239;48.152;11.584;2023-08-31T06:59:04;14.80;99.90
4453;DHT22;2239;48.152;11.584;2023-08-31T07:01:30;14.80;99.90
4453;DHT22;2239;48.152;11.584;2023-08-31T07:03:55;14.70;99.90
4453;DHT22;2239;48.152;11.584;2023-08-31T07:06:21;14.70;99.90
4453;DHT22;2239;48.152;11.584;2023-08-31T07:08:47;14.70;99.90
4453;DHT22;2239;48.152;11.584;2023-08-31T07:11:13;14.70;99.90
4453;DHT22;2239;48.152;11.584;2023-08-31T07:13:39;14.80;99.90
4453;DHT22;2239;48.152;11.584;2023-08-31T07:16:05;14.90;99.90
4453;DHT22;2239;48.152;11.584;2023-08-31T07:18:31;14.90;99.90
4453;DHT22;2239;48.152;11.584;2023-08-31T07:20:57;15.00;99.90
4453;DHT22;2239;48.152;11.584;2023-08-31T07:23:23;15.10;99.90
4453;DHT22;2239;48.152;11.584;2023-08-31T07:25:48;15.20;99.90
4453;DHT22;2239;48.152;11.584;2023-08-31T07:28:14;15.30;99.90
4453;DHT22;2239;48.152;11.584;2023-08-31T07:30:40;15.40;99.90
4453;DHT22;2239;48.152;11.584;2023-08-31T07:33:06;15.50;99.90
4453;DHT22;2239;48.152;11.584;2023-08-31T07:35:32;15.60;99.90
4453;DHT22;2239;48.152;11.584;2023-08-31T07:37:57;15.70;99.90
4453;DHT22;2239;48.152;11.584;2023-08-31T07:40:23;15.70;99.90
4453;DHT22;2239;48.152;11.584;2023-08-31T07:42:49;15.70;99.90
4453;DHT22;2239;48.152;11.584;2023-08-31T07:45:16;15.70;99.90
4453;DHT22;2239;48.152;11.584;2023-08-31T07:47:42;15.70;99.90
4453;DHT22;2239;48.152;11.584;2023-08-31T07:50:08;15.70;99.90
4453;DHT22;2239;48.152;11.584;2023-08-31T07:52:34;15.70;99.90
4453;DHT22;2239;48.152;11.584;2023-08-31T07:55:00;15.70;99.90
4453;DHT22;2239;48.152;11.584;2023-08-31T07:57:25;15.80;99.90
4453;DHT22;2239;48.152;11.584;2023-08-31T07:59:51;15.70;99.90
4453;DHT22;2239;48.152;11.584;2023-08-31T08:02:16;15.80;99.90
4453;DHT22;2239;48.152;11.584;2023-08-31T08:04:42;15.90;99.90
4453;DHT22;2239;48.152;11.584;2023-08-31T08:07:08;16.10;99.90
4453;DHT22;2239;48.152;11.584;2023-08-31T08:09:34;16.10;99.90
4453;DHT22;2239;48.152;11.584;2023-08-31T08:12:00;16.30;99.90
4453;DHT22;2239;48.152;11.584;2023-08-31T08:14:26;16.60;99.90
4453;DHT22;2239;48.152;11.584;2023-08-31T08:16:51;16.80;99.90
4453;DHT22;2239;48.152;11.584;2023-08-31T08:19:24;17.10;99.90
4453;DHT22;2239;48.152;11.584;2023-08-31T08:21:50;17.20;99.90
4453;DHT22;2239;48.152;11.584;2023-08-31T08:24:16;17.20;99.90
4453;DHT22;2239;48.152;11.584;2023-08-31T08:26:42;17.10;99.90
4453;DHT22;2239;48.152;11.584;2023-08-31T08:29:07;16.90;99.90
4453;DHT22;2239;48.152;11.584;2023-08-31T08:31:33;16.80;99.90
4453;DHT22;2239;48.152;11.584;2023-08-31T08:33:58;16.60;99.90
4453;DHT22;2239;48.152;11.584;2023-08-31T08:36:25;16.50;99.90
4453;DHT22;2239;48.152;11.584;2023-08-31T08:38:51;16.40;99.90
4453;DHT22;2239;48.152;11.584;2023-08-31T08:41:19;16.30;99.90
4453;DHT22;2239;48.152;11.584;2023-08-31T08:43:48;16.40;99.90
4453;DHT22;2239;48.152;11.584;2023-08-31T08:46:15;16.60;99.90
4453;DHT22;2239;48.152;11.584;2023-08-31T08:48:42;16.70;99.90
4453;DHT22;2239;48.152;11.584;2023-08-31T08:51:09;16.80;99.90
4453;DHT22;2239;48.152;11.584;2023-08-31T08:53:35;17.00;99.90
4453;DHT22;2239;48.152;11.584;2023-08-31T08:56:03;17.10;99.90
4453;DHT22;2239;48.152;11.584;2023-08-31T08:58:29;17.20;99.90
4453;DHT22;2239;48.152;11.584;2023-08-31T09:00:56;17.60;99.90
4453;DHT22;2239;48.152;11.584;2023-08-31T09:03:23;18.20;99.90
4453;DHT22;2239;48.152;11.584;2023-08-31T09:05:50;18.90;99.90
4453;DHT22;2239;48.152;11.584;2023-08-31T09:08:15;18.90;99.90
4453;DHT22;2239;48.152;11.584;2023-08-31T09:10:44;18.90;99.90
4453;DHT22;2239;48.152;11.584;2023-08-31T09:13:14;18.60;99.90
4453;DHT22;2239;48.152;11.584;2023-08-31T09:15:47;18.30;99.90
4453;DHT22;2239;48.152;11.584;2023-08-31T09:18:27;18.00;99.90
4453;DHT22;2239;48.152;11.584;2023-08-31T09:20:54;17.70;99.90
4453;DHT22;2239;48.152;11.584;2023-08-31T09:23:19;17.50;99.90
4453;DHT22;2239;48.152;11.584;2023-08-31T09:25:47;17.40;99.90
4453;DHT22;2239;48.152;11.584;2023-08-31T09:28:14;17.40;99.90
4453;DHT22;2239;48.152;11.584;2023-08-31T09:30:40;17.40;99.90
4453;DHT22;2239;48.152;11.584;2023-08-31T09:33:07;17.30;99.90
4453;DHT22;2239;48.152;11.584;2023-08-31T09:35:38;17.30;99.90
4453;DHT22;2239;48.152;11.584;2023-08-31T09:38:07;17.40;99.90
4453;DHT22;2239;48.152;11.584;2023-08-31T09:40:33;17.60;99.90
4453;DHT22;2239;48.152;11.584;2023-08-31T09:42:58;18.00;99.90
4453;DHT22;2239;48.152;11.584;2023-08-31T09:45:29;18.40;99.90
4453;DHT22;2239;48.152;11.584;2023-08-31T09:47:56;18.50;99.90
4453;DHT22;2239;48.152;11.584;2023-08-31T09:50:23;18.60;99.90
4453;DHT22;2239;48.152;11.584;2023-08-31T09:52:50;18.70;99.90
4453;DHT22;2239;48.152;11.584;2023-08-31T09:55:20;18.80;99.90
4453;DHT22;2239;48.152;11.584;2023-08-31T09:57:47;18.70;99.90
4453;DHT22;2239;48.152;11.584;2023-08-31T10:00:13;18.40;99.90
4453;DHT22;2239;48.152;11.584;2023-08-31T10:02:42;18.30;99.90
4453;DHT22;2239;48.152;11.584;2023-08-31T10:05:08;18.20;99.90
4453;DHT22;2239;48.152;11.584;2023-08-31T10:07:34;18.00;99.90
4453;DHT22;2239;48.152;11.584;2023-08-31T10:10:00;17.90;99.90
4453;DHT22;2239;48.152;11.584;2023-08-31T10:12:27;17.90;99.90
4453;DHT22;2239;48.152;11.584;2023-08-31T10:14:54;17.90;99.90
4453;DHT22;2239;48.152;11.584;2023-08-31T10:17:20;17.80;99.90
4453;DHT22;2239;48.152;11.584;2023-08-31T10:19:47;17.60;99.90
4453;DHT22;2239;48.152;11.584;2023-08-31T10:22:12;17.60;99.90
4453;DHT22;2239;48.152;11.584;2023-08-31T10:25:04;17.70;99.90
4453;DHT22;2239;48.152;11.584;2023-08-31T10:27:44;18.00;99.90
4453;DHT22;2239;48.152;11.584;2023-08-31T10:35:54;18.00;99.90
4453;DHT22;2239;48.152;11.584;2023-08-31T10:38:31;18.00;99.90
4453;DHT22;2239;48.152;11.584;2023-08-31T10:43:26;17.90;99.90
4453;DHT22;2239;48.152;11.584;2023-08-31T10:45:51;17.80;99.90
4453;DHT22;2239;48.152;11.584;2023-08-31T10:48:17;17.80;99.90
4453;DHT22;2239;48.152;11.584;2023-08-31T10:50:45;17.90;99.90
4453;DHT22;2239;48.152;11.584;2023-08-31T10:53:13;18.00;99.90
4453;DHT22;2239;48.152;11.584;2023-08-31T10:55:51;18.20;99.90
4453;DHT22;2239;48.152;11.584;2023-08-31T10:58:18;18.20;99.90
4453;DHT22;2239;48.152;11.584;2023-08-31T11:00:56;18.20;99.90
4453;DHT22;2239;48.152;11.584;2023-08-31T11:03:22;18.10;99.90
4453;DHT22;2239;48.152;11.584;2023-08-31T11:05:51;18.00;99.90
4453;DHT22;2239;48.152;11.584;2023-08-31T11:08:24;18.10;99.90
4453;DHT22;2239;48.152;11.584;2023-08-31T11:10:51;18.10;99.90
4453;DHT22;2239;48.152;11.584;2023-08-31T11:13:18;18.10;99.90
4453;DHT22;2239;48.152;11.584;2023-08-31T11:15:46;18.00;99.90
4453;DHT22;2239;48.152;11.584;2023-08-31T11:18:12;18.00;99.90
4453;DHT22;2239;48.152;11.584;2023-08-31T11:20:38;17.90;99.90
4453;DHT22;2239;48.152;11.584;2023-08-31T11:23:03;17.90;99.90
4453;DHT22;2239;48.152;11.584;2023-08-31T11:25:32;17.80;99.90
4453;DHT22;2239;48.152;11.584;2023-08-31T11:28:00;17.80;99.90
4453;DHT22;2239;48.152;11.584;2023-08-31T11:30:27;17.70;99.90
4453;DHT22;2239;48.152;11.584;2023-08-31T11:32:54;17.60;99.90
4453;DHT22;2239;48.152;11.584;2023-08-31T11:35:21;17.60;99.90
4453;DHT22;2239;48.152;11.584;2023-08-31T11:37:52;17.60;99.90
4453;DHT22;2239;48.152;11.584;2023-08-31T11:40:22;17.70;99.90
4453;DHT22;2239;48.152;11.584;2023-08-31T11:42:48;18.00;99.90
4453;DHT22;2239;48.152;11.584;2023-08-31T11:45:15;18.30;99.90
4453;DHT22;2239;48.152;11.584;2023-08-31T11:47:41;18.70;99.90
4453;DHT22;2239;48.152;11.584;2023-08-31T11:50:08;19.00;99.90
4453;DHT22;2239;48.152;11.584;2023-08-31T11:52:34;19.30;99.90
4453;DHT22;2239;48.152;11.584;2023-08-31T11:55:00;19.60;99.90
4453;DHT22;2239;48.152;11.584;2023-08-31T11:57:27;19.60;99.50
4453;DHT22;2239;48.152;11.584;2023-08-31T11:59:55;19.50;99.40
4453;DHT22;2239;48.152;11.584;2023-08-31T12:02:21;19.60;99.50
4453;DHT22;2239;48.152;11.584;2023-08-31T12:04:48;19.50;99.20
4453;DHT22;2239;48.152;11.584;2023-08-31T12:07:18;19.50;99.30
4453;DHT22;2239;48.152;11.584;2023-08-31T12:09:44;19.50;99.60
4453;DHT22;2239;48.152;11.584;2023-08-31T12:12:10;19.70;99.80
4453;DHT22;2239;48.152;11.584;2023-08-31T12:14:39;20.10;99.90
4453;DHT22;2239;48.152;11.584;2023-08-31T12:17:07;20.50;99.20
4453;DHT22;2239;48.152;11.584;2023-08-31T12:19:35;21.00;98.10
4453;DHT22;2239;48.152;11.584;2023-08-31T12:22:01;21.20;95.80
4453;DHT22;2239;48.152;11.584;2023-08-31T12:24:26;21.50;95.80
4453;DHT22;2239;48.152;11.584;2023-08-31T12:26:52;21.60;95.30
4453;DHT22;2239;48.152;11.584;2023-08-31T12:29:21;21.70;94.70
4453;DHT22;2239;48.152;11.584;2023-08-31T12:31:48;21.70;94.80
4453;DHT22;2239;48.152;11.584;2023-08-31T12:34:14;21.70;94.60
4453;DHT22;2239;48.152;11.584;2023-08-31T12:36:40;21.60;94.30
4453;DHT22;2239;48.152;11.584;2023-08-31T12:39:07;21.50;93.60
4453;DHT22;2239;48.152;11.584;2023-08-31T12:41:35;21.30;94.90
4453;DHT22;2239;48.152;11.584;2023-08-31T12:44:02;21.20;94.60
4453;DHT22;2239;48.152;11.584;2023-08-31T12:46:29;21.20;94.80
4453;DHT22;2239;48.152;11.584;2023-08-31T12:48:55;21.40;95.10
4453;DHT22;2239;48.152;11.584;2023-08-31T12:51:20;21.60;94.30
4453;DHT22;2239;48.152;11.584;2023-08-31T12:53:46;21.70;93.80
4453;DHT22;2239;48.152;11.584;2023-08-31T12:56:12;21.70;93.70
4453;DHT22;2239;48.152;11.584;2023-08-31T12:58:38;21.70;93.70
4453;DHT22;2239;48.152;11.584;2023-08-31T13:01:04;21.50;93.60
4453;DHT22;2239;48.152;11.584;2023-08-31T13:03:29;21.40;94.10
4453;DHT22;2239;48.152;11.584;2023-08-31T13:05:55;21.30;94.10
4453;DHT22;2239;48.152;11.584;2023-08-31T13:08:21;21.20;94.20
4453;DHT22;2239;48.152;11.584;2023-08-31T13:10:53;21.20;94.10
4453;DHT22;2239;48.152;11.584;2023-08-31T13:13:21;21.20;94.00
4453;DHT22;2239;48.152;11.584;2023-08-31T13:15:47;20.90;94.20
4453;DHT22;2239;48.152;11.584;2023-08-31T13:18:13;20.80;94.70
4453;DHT22;2239;48.152;11.584;2023-08-31T13:20:39;20.70;95.10
4453;DHT22;2239;48.152;11.584;2023-08-31T13:23:05;20.60;95.40
4453;DHT22;2239;48.152;11.584;2023-08-31T13:25:31;20.50;95.10
4453;DHT22;2239;48.152;11.584;2023-08-31T13:27:56;20.30;95.20
4453;DHT22;2239;48.152;11.584;2023-08-31T13:30:22;20.30;94.70
4453;DHT22;2239;48.152;11.584;2023-08-31T13:32:48;20.30;94.80
4453;DHT22;2239;48.152;11.584;2023-08-31T13:35:14;20.40;94.70
4453;DHT22;2239;48.152;11.584;2023-08-31T13:37:39;20.40;94.20
4453;DHT22;2239;48.152;11.584;2023-08-31T13:40:05;20.60;93.20
4453;DHT22;2239;48.152;11.584;2023-08-31T13:42:36;20.90;92.90
4453;DHT22;2239;48.152;11.584;2023-08-31T13:45:07;21.20;92.80
4453;DHT22;2239;48.152;11.584;2023-08-31T13:47:33;21.20;92.70
4453;DHT22;2239;48.152;11.584;2023-08-31T13:49:59;21.20;92.20
4453;DHT22;2239;48.152;11.584;2023-08-31T13:52:25;21.10;92.40
4453;DHT22;2239;48.152;11.584;2023-08-31T13:54:50;21.10;92.10
4453;DHT22;2239;48.152;11.584;2023-08-31T13:57:16;21.30;92.10
4453;DHT22;2239;48.152;11.584;2023-08-31T13:59:46;21.40;91.70
4453;DHT22;2239;48.152;11.584;2023-08-31T14:02:11;21.50;91.60
4453;DHT22;2239;48.152;11.584;2023-08-31T14:04:37;21.30;92.10
4453;DHT22;2239;48.152;11.584;2023-08-31T14:07:02;21.40;92.00
4453;DHT22;2239;48.152;11.584;2023-08-31T14:09:28;21.60;91.80
4453;DHT22;2239;48.152;11.584;2023-08-31T14:11:53;21.40;90.60
4453;DHT22;2239;48.152;11.584;2023-08-31T14:14:22;21.30;90.90
4453;DHT22;2239;48.152;11.584;2023-08-31T14:16:49;21.30;90.60
4453;DHT22;2239;48.152;11.584;2023-08-31T14:19:14;21.00;90.80
4453;DHT22;2239;48.152;11.584;2023-08-31T14:21:40;20.90;90.90
4453;DHT22;2239;48.152;11.584;2023-08-31T14:24:06;20.90;90.30
4453;DHT22;2239;48.152;11.584;2023-08-31T14:26:32;20.80;90.70
4453;DHT22;2239;48.152;11.584;2023-08-31T14:28:58;20.70;90.60
4453;DHT22;2239;48.152;11.584;2023-08-31T14:31:23;20.60;90.60
4453;DHT22;2239;48.152;11.584;2023-08-31T14:33:49;20.50;90.70
4453;DHT22;2239;48.152;11.584;2023-08-31T14:36:16;20.40;91.10
4453;DHT22;2239;48.152;11.584;2023-08-31T14:38:42;20.30;91.40
4453;DHT22;2239;48.152;11.584;2023-08-31T14:41:07;20.30;92.00
4453;DHT22;2239;48.152;11.584;2023-08-31T14:43:33;20.40;91.80
4453;DHT22;2239;48.152;11.584;2023-08-31T14:46:00;20.40;92.10
4453;DHT22;2239;48.152;11.584;2023-08-31T14:48:27;20.50;91.80
4453;DHT22;2239;48.152;11.584;2023-08-31T14:50:53;20.40;91.70
4453;DHT22;2239;48.152;11.584;2023-08-31T14:53:18;20.50;91.70
4453;DHT22;2239;48.152;11.584;2023-08-31T14:55:50;20.40;91.90
4453;DHT22;2239;48.152;11.584;2023-08-31T14:58:16;20.40;91.70
4453;DHT22;2239;48.152;11.584;2023-08-31T15:00:42;20.40;91.80
4453;DHT22;2239;48.152;11.584;2023-08-31T15:03:08;20.50;91.80
4453;DHT22;2239;48.152;11.584;2023-08-31T15:05:34;20.60;91.70
4453;DHT22;2239;48.152;11.584;2023-08-31T15:08:01;20.50;91.20
4453;DHT22;2239;48.152;11.584;2023-08-31T15:10:28;20.50;91.60
4453;DHT22;2239;48.152;11.584;2023-08-31T15:12:54;20.70;91.60
4453;DHT22;2239;48.152;11.584;2023-08-31T15:15:27;20.70;91.40
4453;DHT22;2239;48.152;11.584;2023-08-31T15:17:52;20.70;91.40
4453;DHT22;2239;48.152;11.584;2023-08-31T15:20:18;20.60;91.60
4453;DHT22;2239;48.152;11.584;2023-08-31T15:22:43;20.60;90.40
4453;DHT22;2239;48.152;11.584;2023-08-31T15:25:09;20.40;90.60
4453;DHT22;2239;48.152;11.584;2023-08-31T15:27:35;20.30;90.10
4453;DHT22;2239;48.152;11.584;2023-08-31T15:30:01;20.20;90.30
4453;DHT22;2239;48.152;11.584;2023-08-31T15:32:27;20.10;90.20
4453;DHT22;2239;48.152;11.584;2023-08-31T15:34:52;20.10;90.20
4453;DHT22;2239;48.152;11.584;2023-08-31T15:37:19;19.90;90.10
4453;DHT22;2239;48.152;11.584;2023-08-31T15:39:45;19.80;90.40
4453;DHT22;2239;48.152;11.584;2023-08-31T15:42:11;19.80;89.90
4453;DHT22;2239;48.152;11.584;2023-08-31T15:44:40;19.80;90.60
4453;DHT22;2239;48.152;11.584;2023-08-31T15:47:06;19.60;90.50
4453;DHT22;2239;48.152;11.584;2023-08-31T15:49:32;19.60;91.10
4453;DHT22;2239;48.152;11.584;2023-08-31T15:51:57;19.60;91.10
4453;DHT22;2239;48.152;11.584;2023-08-31T15:54:23;19.70;91.20